sensor_id;sensor_type;location;lat;lon;timestamp;pressure;altitude;pressure_sealevel;temperature;humidity
26839;BME280;40088;51.214;6.786;2024-03-25T00:02:19;100468.53;;;15.66;52.31
26839;BME280;40088;51.214;6.786;2024-03-25T00:12:20;100480.56;;;15.65;51.80
26839;BME280;40088;51.214;6.786;2024-03-25T00:22:21;100480.56;;;15.65;51.90
26839;BME280;40088;51.214;6.786;2024-03-25T00:32:22;100477.81;;;15.65;52.09
26839;BME280;40088;51.214;6.786;2024-03-25T00:42:22;100476.13;;;15.63;52.24
26839;BME280;40088;51.214;6.786;2024-03-25T00:52:22;100474.22;;;15.64;52.18
26839;BME280;40088;51.214;6.786;2024-03-25T01:02:22;100474.22;;;15.64;52.53
26839;BME280;40088;51.214;6.786;2024-03-25T01:12:23;100468.72;;;15.64;52.33
26839;BME280;40088;51.214;6.786;2024-03-25T01:22:23;100474.41;;;15.62;52.42
26839;BME280;40088;51.214;6.786;2024-03-25T01:32:24;100480.56;;;15.65;52.82
26839;BME280;40088;51.214;6.786;2024-03-25T01:42:24;100480.56;;;15.65;52.45
26839;BME280;40088;51.214;6.786;2024-03-25T01:52:25;100483.31;;;15.65;52.63
26839;BME280;40088;51.214;6.786;2024-03-25T02:02:26;100481.63;;;15.63;52.58
26839;BME280;40088;51.214;6.786;2024-03-25T02:12:26;100486.06;;;15.65;52.61
26839;BME280;40088;51.214;6.786;2024-03-25T02:22:27;100491.75;;;15.63;52.42
26839;BME280;40088;51.214;6.786;2024-03-25T02:32:27;100495.34;;;15.63;52.53
26839;BME280;40088;51.214;6.786;2024-03-25T02:42:29;100490.03;;;15.62;52.38
26839;BME280;40088;51.214;6.786;2024-03-25T02:52:30;100493.63;;;15.62;52.70
26839;BME280;40088;51.214;6.786;2024-03-25T03:02:30;100490.88;;;15.62;52.51
26839;BME280;40088;51.214;6.786;2024-03-25T03:12:31;100479.88;;;15.62;52.67
26839;BME280;40088;51.214;6.786;2024-03-25T03:22:31;100478.88;;;15.63;52.56
26839;BME280;40088;51.214;6.786;2024-03-25T03:32:32;100461.72;;;15.61;52.58
26839;BME280;40088;51.214;6.786;2024-03-25T03:42:32;100469.97;;;15.61;52.40
26839;BME280;40088;51.214;6.786;2024-03-25T03:52:32;100475.28;;;15.63;52.46
26839;BME280;40088;51.214;6.786;2024-03-25T04:02:33;100468.06;;;15.62;52.69
26839;BME280;40088;51.214;6.786;2024-03-25T04:12:33;100478.19;;;15.61;52.75
26839;BME280;40088;51.214;6.786;2024-03-25T04:22:33;100478.88;;;15.63;52.54
26839;BME280;40088;51.214;6.786;2024-03-25T04:32:35;100476.28;;;15.62;52.76
26839;BME280;40088;51.214;6.786;2024-03-25T04:42:35;100480.94;;;15.61;52.74
26839;BME280;40088;51.214;6.786;2024-03-25T04:52:36;100479.88;;;15.62;52.75
26839;BME280;40088;51.214;6.786;2024-03-25T05:02:37;100487.28;;;15.62;52.58
26839;BME280;40088;51.214;6.786;2024-03-25T05:12:38;100478.19;;;15.61;52.76
26839;BME280;40088;51.214;6.786;2024-03-25T05:22:38;100480.94;;;15.61;52.70
26839;BME280;40088;51.214;6.786;2024-03-25T05:32:39;100490.88;;;15.62;52.77
26839;BME280;40088;51.214;6.786;2024-03-25T05:42:39;100487.28;;;15.62;52.63
26839;BME280;40088;51.214;6.786;2024-03-25T05:52:39;100488.13;;;15.62;52.70
26839;BME280;40088;51.214;6.786;2024-03-25T06:02:39;100503.75;;;15.62;52.80
26839;BME280;40088;51.214;6.786;2024-03-25T06:12:40;100503.94;;;15.60;52.56
26839;BME280;40088;51.214;6.786;2024-03-25T06:22:40;100502.91;;;15.61;52.66
26839;BME280;40088;51.214;6.786;2024-03-25T06:32:41;100493.63;;;15.62;52.59
26839;BME280;40088;51.214;6.786;2024-03-25T06:43:00;100498.28;;;15.62;52.68
26839;BME280;40088;51.214;6.786;2024-03-25T06:53:00;100507.34;;;15.62;52.69
26839;BME280;40088;51.214;6.786;2024-03-25T07:03:00;100509.25;;;15.62;52.63
26839;BME280;40088;51.214;6.786;2024-03-25T07:13:01;100506.50;;;15.62;52.82
26839;BME280;40088;51.214;6.786;2024-03-25T07:23:03;100499.13;;;15.62;52.88
26839;BME280;40088;51.214;6.786;2024-03-25T07:33:03;100495.53;;;15.62;52.75
26839;BME280;40088;51.214;6.786;2024-03-25T07:43:05;100494.69;;;15.61;52.69
26839;BME280;40088;51.214;6.786;2024-03-25T07:53:05;100496.38;;;15.62;52.49
26839;BME280;40088;51.214;6.786;2024-03-25T08:03:05;100491.09;;;15.61;52.58
26839;BME280;40088;51.214;6.786;2024-03-25T08:13:06;100492.94;;;15.60;52.56
26839;BME280;40088;51.214;6.786;2024-03-25T08:23:06;100500.34;;;15.60;52.54
26839;BME280;40088;51.214;6.786;2024-03-25T08:33:06;100503.09;;;15.60;52.75
26839;BME280;40088;51.214;6.786;2024-03-25T08:43:06;100491.94;;;15.61;52.78
26839;BME280;40088;51.214;6.786;2024-03-25T08:53:07;100487.44;;;15.60;52.66
26839;BME280;40088;51.214;6.786;2024-03-25T09:03:08;100484.72;;;15.60;52.64
26839;BME280;40088;51.214;6.786;2024-03-25T09:13:09;100488.50;;;15.59;52.40
26839;BME280;40088;51.214;6.786;2024-03-25T09:23:09;100489.34;;;15.60;52.69
26839;BME280;40088;51.214;6.786;2024-03-25T09:33:10;100490.19;;;15.60;52.38
26839;BME280;40088;51.214;6.786;2024-03-25T09:43:16;100474.78;;;15.59;52.55
26839;BME280;40088;51.214;6.786;2024-03-25T09:53:21;100465.47;;;15.60;52.50
26839;BME280;40088;51.214;6.786;2024-03-25T10:03:21;100461.88;;;15.60;52.34
26839;BME280;40088;51.214;6.786;2024-03-25T10:13:22;100439.06;;;15.59;52.22
26839;BME280;40088;51.214;6.786;2024-03-25T10:23:23;100424.28;;;15.60;52.39
26839;BME280;40088;51.214;6.786;2024-03-25T10:33:25;100408.84;;;15.59;52.07
26839;BME280;40088;51.214;6.786;2024-03-25T10:43:28;100401.69;;;15.58;52.23
26839;BME280;40088;51.214;6.786;2024-03-25T10:53:31;100380.56;;;15.59;52.09
26839;BME280;40088;51.214;6.786;2024-03-25T11:03:32;100370.63;;;15.58;52.17
26839;BME280;40088;51.214;6.786;2024-03-25T11:13:33;100353.94;;;15.59;51.97
26839;BME280;40088;51.214;6.786;2024-03-25T11:23:44;100340.19;;;15.59;51.95
26839;BME280;40088;51.214;6.786;2024-03-25T11:33:45;100333.84;;;15.59;51.69
26839;BME280;40088;51.214;6.786;2024-03-25T11:43:45;100331.13;;;15.59;51.84
26839;BME280;40088;51.214;6.786;2024-03-25T11:53:46;100313.78;;;15.58;51.77
26839;BME280;40088;51.214;6.786;2024-03-25T12:03:46;100296.25;;;15.59;51.88
26839;BME280;40088;51.214;6.786;2024-03-25T12:13:46;100283.59;;;15.58;51.51
26839;BME280;40088;51.214;6.786;2024-03-25T12:23:47;100279.78;;;15.59;51.51
26839;BME280;40088;51.214;6.786;2024-03-25T12:33:48;100259.72;;;15.59;51.49
26839;BME280;40088;51.214;6.786;2024-03-25T12:43:50;100233.31;;;15.58;51.53
26839;BME280;40088;51.214;6.786;2024-03-25T12:53:50;100237.75;;;15.59;50.96
26839;BME280;40088;51.214;6.786;2024-03-25T13:03:51;100224.84;;;15.59;51.20
26839;BME280;40088;51.214;6.786;2024-03-25T13:13:51;100197.38;;;15.59;51.14
26839;BME280;40088;51.214;6.786;2024-03-25T13:23:52;100169.94;;;15.59;51.34
26839;BME280;40088;51.214;6.786;2024-03-25T13:33:52;100159.78;;;15.60;51.29
26839;BME280;40088;51.214;6.786;2024-03-25T13:43:52;100140.56;;;15.60;51.00
26839;BME280;40088;51.214;6.786;2024-03-25T13:53:53;100126.00;;;15.59;51.04
26839;BME280;40088;51.214;6.786;2024-03-25T14:03:53;100111.19;;;15.60;51.07
26839;BME280;40088;51.214;6.786;2024-03-25T14:13:53;100093.69;;;15.61;50.96
26839;BME280;40088;51.214;6.786;2024-03-25T14:23:53;100079.31;;;15.59;50.80
26839;BME280;40088;51.214;6.786;2024-03-25T14:33:54;100077.22;;;15.61;50.75
26839;BME280;40088;51.214;6.786;2024-03-25T14:43:54;100046.16;;;15.61;50.62
26839;BME280;40088;51.214;6.786;2024-03-25T14:53:54;100027.97;;;15.60;50.59
26839;BME280;40088;51.214;6.786;2024-03-25T15:03:54;100010.47;;;15.61;50.18
26839;BME280;40088;51.214;6.786;2024-03-25T15:13:55;99992.09;;;15.61;50.70
26839;BME280;40088;51.214;6.786;2024-03-25T15:23:55;99976.47;;;15.62;50.72
26839;BME280;40088;51.214;6.786;2024-03-25T15:33:56;99965.47;;;15.62;50.62
26839;BME280;40088;51.214;6.786;2024-03-25T15:43:56;99946.25;;;15.62;50.65
26839;BME280;40088;51.214;6.786;2024-03-25T15:53:56;99938.84;;;15.62;50.71
26839;BME280;40088;51.214;6.786;2024-03-25T16:03:57;99922.38;;;15.62;50.76
26839;BME280;40088;51.214;6.786;2024-03-25T16:13:58;99911.38;;;15.62;50.62
26839;BME280;40088;51.214;6.786;2024-03-25T16:23:58;99910.38;;;15.63;50.67
26839;BME280;40088;51.214;6.786;2024-03-25T16:33:58;99894.91;;;15.62;50.61
26839;BME280;40088;51.214;6.786;2024-03-25T16:43:59;99893.88;;;15.63;50.62
26839;BME280;40088;51.214;6.786;2024-03-25T16:53:59;99889.41;;;15.62;50.62
26839;BME280;40088;51.214;6.786;2024-03-25T17:03:59;99862.84;;;15.63;50.74
26839;BME280;40088;51.214;6.786;2024-03-25T17:14:02;99866.41;;;15.63;50.43
26839;BME280;40088;51.214;6.786;2024-03-25T17:24:02;99867.44;;;15.62;50.70
26839;BME280;40088;51.214;6.786;2024-03-25T17:34:03;99853.72;;;15.62;50.47
26839;BME280;40088;51.214;6.786;2024-03-25T17:44:04;99846.34;;;15.63;50.55
26839;BME280;40088;51.214;6.786;2024-03-25T17:54:05;99844.44;;;15.63;50.71
26839;BME280;40088;51.214;6.786;2024-03-25T18:04:05;99829.00;;;15.62;50.61
26839;BME280;40088;51.214;6.786;2024-03-25T18:14:06;99816.16;;;15.63;50.61
26839;BME280;40088;51.214;6.786;2024-03-25T18:24:06;99815.28;;;15.62;50.54
26839;BME280;40088;51.214;6.786;2024-03-25T18:34:07;99797.78;;;15.63;50.43
26839;BME280;40088;51.214;6.786;2024-03-25T18:44:07;99793.31;;;15.62;50.52
26839;BME280;40088;51.214;6.786;2024-03-25T18:54:07;99776.81;;;15.62;50.40
26839;BME280;40088;51.214;6.786;2024-03-25T19:04:08;99774.97;;;15.63;50.77
26839;BME280;40088;51.214;6.786;2024-03-25T19:14:09;99771.34;;;15.62;50.35
26839;BME280;40088;51.214;6.786;2024-03-25T19:24:09;99763.97;;;15.63;50.43
26839;BME280;40088;51.214;6.786;2024-03-25T19:34:09;99760.34;;;15.62;50.39
26839;BME280;40088;51.214;6.786;2024-03-25T19:44:09;99755.91;;;15.61;50.24
26839;BME280;40088;51.214;6.786;2024-03-25T19:54:10;99748.53;;;15.62;50.36
26839;BME280;40088;51.214;6.786;2024-03-25T20:04:10;99743.03;;;15.62;50.21
26839;BME280;40088;51.214;6.786;2024-03-25T20:14:10;99742.19;;;15.61;50.24
26839;BME280;40088;51.214;6.786;2024-03-25T20:24:16;99728.47;;;15.61;50.32
26839;BME280;40088;51.214;6.786;2024-03-25T20:34:17;99739.44;;;15.61;50.30
26839;BME280;40088;51.214;6.786;2024-03-25T20:44:17;99722.97;;;15.61;50.34
26839;BME280;40088;51.214;6.786;2024-03-25T20:54:17;99723.81;;;15.62;50.34
26839;BME280;40088;51.214;6.786;2024-03-25T21:04:17;99706.50;;;15.61;50.23
26839;BME280;40088;51.214;6.786;2024-03-25T21:14:18;99704.78;;;15.60;50.16
26839;BME280;40088;51.214;6.786;2024-03-25T21:24:18;99696.53;;;15.60;50.29
26839;BME280;40088;51.214;6.786;2024-03-25T21:34:18;99689.19;;;15.61;50.34
26839;BME280;40088;51.214;6.786;2024-03-25T21:44:18;99678.38;;;15.59;50.21
26839;BME280;40088;51.214;6.786;2024-03-25T21:54:19;99670.16;;;15.59;50.30
26839;BME280;40088;51.214;6.786;2024-03-25T22:04:19;99650.09;;;15.59;50.09
26839;BME280;40088;51.214;6.786;2024-03-25T22:14:19;99635.50;;;15.58;50.17
26839;BME280;40088;51.214;6.786;2024-03-25T22:24:19;99628.97;;;15.59;50.15
26839;BME280;40088;51.214;6.786;2024-03-25T22:34:20;99630.88;;;15.59;50.13
26839;BME280;40088;51.214;6.786;2024-03-25T22:44:20;99608.06;;;15.58;50.10
26839;BME280;40088;51.214;6.786;2024-03-25T22:54:20;99601.72;;;15.58;50.23
26839;BME280;40088;51.214;6.786;2024-03-25T23:04:20;99594.56;;;15.57;50.08
26839;BME280;40088;51.214;6.786;2024-03-25T23:14:21;99583.34;;;15.58;50.18
26839;BME280;40088;51.214;6.786;2024-03-25T23:24:21;99588.22;;;15.56;50.02
26839;BME280;40088;51.214;6.786;2024-03-25T23:34:21;99579.13;;;15.56;50.20
26839;BME280;40088;51.214;6.786;2024-03-25T23:44:21;99568.16;;;15.56;50.26
26839;BME280;40088;51.214;6.786;2024-03-25T23:54:22;99555.28;;;15.56;50.16
